La Tontouta, New Caledonia

5:54 PM NCT on September 30, 2016 (GMT +1100)
La Tontouta | | Change Station

Elev 52 ft 22.02 °S, 166.22 °E | Updated 24 minutes ago

Clear
Clear
77 °F
Feels Like 77 °F
N
8
Wind Variable Wind from SSE

Today
High -- | Low -- °F
--% Chance of Precip.
Yesterday
High -- | Low -- °F
Precip. -- in
Pressure 29.92 in
Visibility 6.2 miles
Clouds
Dew Point 59 °F
Humidity 54%
Rainfall 0.00 in
Snow Depth Not available.
5:37 AM 5:53 PM
Waning Crescent, 0% visible
METAR NWWW 300630Z AUTO 15007KT 9999 NCD 25/15 Q1013 NOSIG
Pressure 29.92 in
Visibility 6.2 miles
Clouds
Dew Point 59 °F
Humidity 54%
Rainfall 0.00 in
Snow Depth Not available.
5:37 AM 5:53 PM
Waning Crescent, 0% visible
METAR NWWW 300630Z AUTO 15007KT 9999 NCD 25/15 Q1013 NOSIG

10-Day Weather Forecast

No radar image for this location.
×

Almanac

Astronomy

Sep. 30, 2016 Rise Set
Actual Time
Civil Twilight
Nautical Twilight
Astronomical Twilight
Moon
Length of Visible Light
Length of Day
Tomorrow will be .
, % of the Moon is Illuminated

Today's Extremes

Country Highs Country Lows

Community

WunderPhotos

Upload Photos

1,942,668 photos uploaded!

WunderBlog® & News

Nearby

Air Quality

  Air Quality AQ Index Pollutant
Not available.

Snow Depth

Station Depth Elevation

Earthquake Activity

City Distance Mag. Time & Date
Minimum magnitude displayed is 2.5.

Coastal Water Temperatures

Place Temperature

Stations

Nearby Weather Stations

Station Location Temp. Windchill Dew Point Humidity Wind Precip. Elev Updated Type